Time;durP1;ratioP1;P1;durP2;ratioP2;P2;SDS_P1;SDS_P2;PMS_P1;PMS_P2;Temp;Humidity;BMP_temperature;BMP_pressure;BME280_temperature;BME280_humidity;BME280_pressure;Samples;Min_cycle;Max_cycle;Signal;HPM_P1;HPM_P2
2023/05/20 00:02:16;;;;;;;2.85;1.80;;;;;;;;;;5091069;28;20064;-72
2023/05/20 00:04:42;;;;;;;2.00;1.55;;;;;;;;;;5083377;28;20042;-72
2023/05/20 00:07:08;;;;;;;4.28;1.40;;;;;;;;;;5071623;28;20048;-72
2023/05/20 00:09:34;;;;;;;1.90;1.80;;;;;;;;;;5092412;28;20066;-72
2023/05/20 00:12:01;;;;;;;1.88;1.77;;;;;;;;;;5093727;28;20538;-73
2023/05/20 00:14:27;;;;;;;1.88;1.70;;;;;;;;;;5093666;28;20051;-72
2023/05/20 00:16:53;;;;;;;2.55;2.00;;;;;;;;;;5070528;28;20040;-71
2023/05/20 00:19:19;;;;;;;3.58;2.95;;;;;;;;;;5075896;28;20036;-73
2023/05/20 00:21:45;;;;;;;4.18;2.90;;;;;;;;;;5075053;28;20585;-72
2023/05/20 00:24:11;;;;;;;3.13;2.38;;;;;;;;;;5093745;28;20559;-72
2023/05/20 00:26:37;;;;;;;7.85;3.08;;;;;;;;;;5093342;28;20131;-72
2023/05/20 00:29:03;;;;;;;7.57;4.13;;;;;;;;;;5093937;28;20507;-72
2023/05/20 00:31:30;;;;;;;7.28;3.45;;;;;;;;;;5075126;28;20070;-72
2023/05/20 00:33:55;;;;;;;5.70;3.50;;;;;;;;;;5093880;28;20071;-72
2023/05/20 00:36:21;;;;;;;11.00;4.47;;;;;;;;;;5093172;28;20043;-71
2023/05/20 00:38:48;;;;;;;4.07;2.92;;;;;;;;;;5093027;28;20097;-72
2023/05/20 00:41:14;;;;;;;8.32;3.20;;;;;;;;;;5075086;28;20058;-73
2023/05/20 00:43:40;;;;;;;5.70;3.00;;;;;;;;;;5093166;28;20044;-72
2023/05/20 00:46:06;;;;;;;4.90;2.40;;;;;;;;;;5093529;28;20040;-71
2023/05/20 00:48:35;;;;;;;8.27;2.75;;;;;;;;;;5093095;28;20126;-72
2023/05/20 00:51:03;;;;;;;10.23;4.10;;;;;;;;;;5095893;28;20047;-72
2023/05/20 00:53:29;;;;;;;4.60;2.88;;;;;;;;;;5077948;28;20052;-71
2023/05/20 00:55:55;;;;;;;3.13;2.75;;;;;;;;;;5092662;28;20132;-72
2023/05/20 00:58:21;;;;;;;2.10;2.00;;;;;;;;;;5071642;28;20052;-72
2023/05/20 01:00:48;;;;;;;1.90;1.80;;;;;;;;;;5057700;28;20404;-71
2023/05/20 01:03:14;;;;;;;2.08;1.98;;;;;;;;;;5092999;28;20055;-71
2023/05/20 01:05:40;;;;;;;2.17;1.80;;;;;;;;;;5092369;28;20063;-73
2023/05/20 01:08:06;;;;;;;3.33;1.85;;;;;;;;;;5074724;28;20075;-72
2023/05/20 01:10:32;;;;;;;2.67;2.47;;;;;;;;;;5074577;28;20046;-72
2023/05/20 01:13:00;;;;;;;1.90;1.80;;;;;;;;;;5064152;28;20119;-73
2023/05/20 01:15:26;;;;;;;2.28;2.00;;;;;;;;;;5092717;28;20039;-73
2023/05/20 01:18:00;;;;;;;4.50;2.15;;;;;;;;;;5074377;28;20044;-73
2023/05/20 01:20:27;;;;;;;7.32;1.90;;;;;;;;;;5092050;28;20406;-72
2023/05/20 01:22:54;;;;;;;3.90;1.90;;;;;;;;;;5074697;28;20046;-72
2023/05/20 01:25:20;;;;;;;8.32;1.90;;;;;;;;;;5074939;28;20167;-72
2023/05/20 01:27:48;;;;;;;4.35;1.70;;;;;;;;;;5074678;28;20052;-72
2023/05/20 01:30:14;;;;;;;4.13;1.98;;;;;;;;;;5092654;28;20082;-71
2023/05/20 01:32:41;;;;;;;4.05;2.13;;;;;;;;;;5093526;28;20574;-72
2023/05/20 01:35:07;;;;;;;1.70;1.60;;;;;;;;;;5095723;28;20086;-72
2023/05/20 01:37:34;;;;;;;3.17;1.80;;;;;;;;;;5093962;28;20051;-72
2023/05/20 01:40:00;;;;;;;2.92;1.88;;;;;;;;;;5092387;28;20415;-72
2023/05/20 01:42:26;;;;;;;3.42;1.55;;;;;;;;;;5074032;28;20051;-72
2023/05/20 01:44:52;;;;;;;2.95;1.80;;;;;;;;;;5073814;28;20036;-72
2023/05/20 01:47:18;;;;;;;2.50;1.60;;;;;;;;;;5065921;28;20047;-72
2023/05/20 01:49:45;;;;;;;4.82;1.70;;;;;;;;;;5073813;28;20044;-72
2023/05/20 01:52:11;;;;;;;2.00;1.52;;;;;;;;;;5091881;28;20040;-73
2023/05/20 01:54:37;;;;;;;1.88;1.77;;;;;;;;;;5073508;28;20040;-73
2023/05/20 01:57:03;;;;;;;3.30;1.77;;;;;;;;;;5073496;28;20434;-73
2023/05/20 01:59:29;;;;;;;4.10;1.88;;;;;;;;;;5073710;28;20043;-72
2023/05/20 02:01:56;;;;;;;5.32;2.05;;;;;;;;;;5073689;28;20578;-72
2023/05/20 02:04:22;;;;;;;2.25;1.60;;;;;;;;;;5073639;28;20044;-71
2023/05/20 02:06:48;;;;;;;4.45;1.65;;;;;;;;;;5073216;28;20081;-72
2023/05/20 02:09:14;;;;;;;6.43;2.33;;;;;;;;;;5073703;28;20450;-73
2023/05/20 02:11:40;;;;;;;2.67;2.47;;;;;;;;;;5072962;28;20122;-74
2023/05/20 02:14:06;;;;;;;4.97;1.92;;;;;;;;;;5073285;28;20040;-73
2023/05/20 02:16:32;;;;;;;2.05;1.65;;;;;;;;;;5087999;28;20117;-73
2023/05/20 02:18:58;;;;;;;1.98;1.52;;;;;;;;;;5093525;28;20263;-74
2023/05/20 02:21:27;;;;;;;3.20;1.70;;;;;;;;;;5076642;28;20431;-72
2023/05/20 02:23:52;;;;;;;7.20;2.10;;;;;;;;;;5091486;28;20411;-72
2023/05/20 02:26:19;;;;;;;2.63;1.90;;;;;;;;;;5091323;28;20135;-72
2023/05/20 02:28:49;;;;;;;6.93;1.75;;;;;;;;;;5091006;28;20047;-71
2023/05/20 02:31:16;;;;;;;1.67;1.58;;;;;;;;;;5090432;28;20048;-72
2023/05/20 02:33:42;;;;;;;2.20;1.38;;;;;;;;;;5075807;28;20044;-74
2023/05/20 02:36:09;;;;;;;5.85;1.80;;;;;;;;;;5091035;28;20071;-72
2023/05/20 02:38:35;;;;;;;2.05;1.67;;;;;;;;;;5079585;28;20066;-71
2023/05/20 02:41:03;;;;;;;4.10;2.03;;;;;;;;;;5077471;28;20134;-72
2023/05/20 02:43:30;;;;;;;1.70;1.60;;;;;;;;;;5092400;28;20114;-71
2023/05/20 02:45:59;;;;;;;1.97;1.77;;;;;;;;;;5073072;28;20447;-72
2023/05/20 02:48:25;;;;;;;6.45;2.13;;;;;;;;;;5091294;28;20036;-72
2023/05/20 02:50:52;;;;;;;1.80;1.70;;;;;;;;;;5067053;28;20044;-72
2023/05/20 02:53:18;;;;;;;3.80;1.52;;;;;;;;;;5073191;28;20047;-73
2023/05/20 02:55:47;;;;;;;1.50;1.40;;;;;;;;;;5072024;28;20047;-73
2023/05/20 02:58:13;;;;;;;2.63;2.42;;;;;;;;;;5072365;28;20105;-72
2023/05/20 03:00:39;;;;;;;3.90;2.17;;;;;;;;;;5090443;28;20032;-72
2023/05/20 03:03:06;;;;;;;2.67;1.50;;;;;;;;;;5090529;28;20118;-73
2023/05/20 03:05:36;;;;;;;1.48;1.40;;;;;;;;;;5090467;28;20529;-73
2023/05/20 03:08:06;;;;;;;5.10;1.95;;;;;;;;;;5072285;28;20046;-73
2023/05/20 03:10:32;;;;;;;1.83;1.60;;;;;;;;;;5052020;28;20040;-72
2023/05/20 03:12:59;;;;;;;1.80;1.70;;;;;;;;;;5081885;28;20080;-72
2023/05/20 03:15:25;;;;;;;3.40;1.73;;;;;;;;;;5075909;28;20032;-73
2023/05/20 03:17:51;;;;;;;2.50;1.70;;;;;;;;;;5071892;28;20051;-72
2023/05/20 03:20:17;;;;;;;3.92;1.90;;;;;;;;;;5072329;28;20129;-72
2023/05/20 03:22:43;;;;;;;2.08;1.35;;;;;;;;;;5071624;28;20074;-73
2023/05/20 03:25:09;;;;;;;2.67;1.52;;;;;;;;;;5072382;28;20668;-72
2023/05/20 03:27:36;;;;;;;1.77;1.65;;;;;;;;;;5039220;28;20046;-73
2023/05/20 03:30:03;;;;;;;1.70;1.60;;;;;;;;;;5076256;28;20031;-72
2023/05/20 03:32:32;;;;;;;1.27;1.27;;;;;;;;;;5081630;28;20048;-71
2023/05/20 03:34:58;;;;;;;2.25;1.63;;;;;;;;;;5071728;28;20038;-73
2023/05/20 03:37:25;;;;;;;1.80;1.70;;;;;;;;;;5072040;28;20051;-73
2023/05/20 03:39:51;;;;;;;1.80;1.70;;;;;;;;;;5089757;28;20035;-73
2023/05/20 03:42:18;;;;;;;3.42;1.83;;;;;;;;;;5089560;28;20143;-72
2023/05/20 03:44:44;;;;;;;3.60;1.67;;;;;;;;;;5071579;28;20182;-73
2023/05/20 03:47:10;;;;;;;3.63;1.90;;;;;;;;;;5071834;28;20051;-73
2023/05/20 03:49:39;;;;;;;3.45;1.40;;;;;;;;;;5071561;28;20028;-74
2023/05/20 03:52:06;;;;;;;4.30;2.13;;;;;;;;;;5071684;28;20131;-74
2023/05/20 03:54:32;;;;;;;1.67;1.58;;;;;;;;;;5071936;28;20051;-73
2023/05/20 03:56:59;;;;;;;3.80;1.70;;;;;;;;;;5071075;28;20527;-72
2023/05/20 03:59:26;;;;;;;1.77;1.40;;;;;;;;;;5071704;28;20044;-73
2023/05/20 04:01:52;;;;;;;5.55;1.60;;;;;;;;;;5062654;28;20044;-73
2023/05/20 04:04:18;;;;;;;1.90;1.58;;;;;;;;;;5090326;28;20048;-74
2023/05/20 04:06:45;;;;;;;7.03;2.88;;;;;;;;;;5109620;28;20040;-73
2023/05/20 04:09:11;;;;;;;1.70;1.60;;;;;;;;;;5072675;28;20145;-73
2023/05/20 04:11:37;;;;;;;3.33;1.60;;;;;;;;;;5089758;28;20524;-72
2023/05/20 04:14:04;;;;;;;2.63;1.73;;;;;;;;;;5089249;28;20121;-74
2023/05/20 04:16:30;;;;;;;3.92;1.80;;;;;;;;;;5071590;28;20070;-73
2023/05/20 04:18:57;;;;;;;4.00;2.30;;;;;;;;;;5071204;28;20043;-72
2023/05/20 04:21:24;;;;;;;3.58;1.92;;;;;;;;;;5071558;28;20052;-72
2023/05/20 04:23:50;;;;;;;3.63;1.70;;;;;;;;;;5054670;28;20044;-71
2023/05/20 04:26:16;;;;;;;2.22;2.00;;;;;;;;;;5055227;28;20428;-73
2023/05/20 04:28:42;;;;;;;3.78;1.77;;;;;;;;;;5071321;28;20079;-75
2023/05/20 04:31:09;;;;;;;4.60;1.52;;;;;;;;;;5060196;28;20103;-74
2023/05/20 04:33:37;;;;;;;5.28;1.80;;;;;;;;;;5068807;28;20044;-73
2023/05/20 04:36:05;;;;;;;3.88;1.90;;;;;;;;;;5054881;28;20575;-74
2023/05/20 04:38:32;;;;;;;5.25;1.48;;;;;;;;;;5068324;28;20044;-72
2023/05/20 04:41:00;;;;;;;3.05;2.22;;;;;;;;;;5070798;28;20040;-73
2023/05/20 04:43:30;;;;;;;10.65;2.47;;;;;;;;;;5071204;28;20120;-74
2023/05/20 04:45:58;;;;;;;3.33;1.90;;;;;;;;;;5089052;28;20040;-73
2023/05/20 04:48:26;;;;;;;4.85;1.80;;;;;;;;;;5071278;28;20040;-73
2023/05/20 04:50:53;;;;;;;3.85;2.17;;;;;;;;;;5070782;28;20473;-73
2023/05/20 04:53:20;;;;;;;2.33;1.98;;;;;;;;;;5071203;28;20550;-73
2023/05/20 04:55:48;;;;;;;1.55;1.45;;;;;;;;;;5073679;28;20055;-73
2023/05/20 04:58:16;;;;;;;2.40;1.90;;;;;;;;;;5074826;28;20050;-72
2023/05/20 05:00:45;;;;;;;2.53;1.92;;;;;;;;;;5074408;28;20067;-74
2023/05/20 05:03:12;;;;;;;4.65;1.60;;;;;;;;;;5092920;28;20046;-73
2023/05/20 05:05:39;;;;;;;2.10;1.90;;;;;;;;;;5074972;28;20135;-73
2023/05/20 05:08:06;;;;;;;2.15;1.52;;;;;;;;;;5074410;28;20043;-73
2023/05/20 05:10:34;;;;;;;5.18;1.95;;;;;;;;;;5088106;28;20027;-73
2023/05/20 05:13:01;;;;;;;3.60;2.72;;;;;;;;;;5074574;28;20040;-72
2023/05/20 05:15:27;;;;;;;3.13;1.60;;;;;;;;;;5074774;28;20113;-72
2023/05/20 05:17:53;;;;;;;2.92;1.73;;;;;;;;;;5064724;28;20573;-72
2023/05/20 05:20:19;;;;;;;3.55;1.58;;;;;;;;;;5078757;28;20130;-80
2023/05/20 05:22:45;;;;;;;1.63;1.52;;;;;;;;;;5087149;28;20132;-79
2023/05/20 05:25:11;;;;;;;3.13;1.50;;;;;;;;;;5079751;28;20048;-78
2023/05/20 05:27:37;;;;;;;1.70;1.50;;;;;;;;;;5080397;28;20040;-80
2023/05/20 05:30:04;;;;;;;3.28;1.70;;;;;;;;;;5072282;28;20431;-80
2023/05/20 05:32:31;;;;;;;2.40;1.70;;;;;;;;;;5084106;28;20043;-76
2023/05/20 05:34:57;;;;;;;1.70;1.60;;;;;;;;;;5102240;28;20043;-79
2023/05/20 05:37:23;;;;;;;4.18;1.67;;;;;;;;;;5045207;28;20399;-74
2023/05/20 05:39:49;;;;;;;2.38;2.10;;;;;;;;;;5073973;28;20044;-75
2023/05/20 05:42:16;;;;;;;1.67;1.55;;;;;;;;;;5074137;28;20063;-75
2023/05/20 05:44:43;;;;;;;3.92;1.77;;;;;;;;;;5073657;28;20527;-75
2023/05/20 05:47:09;;;;;;;2.80;1.92;;;;;;;;;;5073303;28;20079;-75
2023/05/20 05:49:36;;;;;;;5.47;1.80;;;;;;;;;;5073418;28;20097;-75
2023/05/20 05:52:02;;;;;;;3.20;2.03;;;;;;;;;;5057922;28;20058;-74
2023/05/20 05:54:28;;;;;;;3.58;1.77;;;;;;;;;;5070784;28;20039;-76
2023/05/20 05:56:55;;;;;;;3.25;1.67;;;;;;;;;;5082756;28;20514;-77
2023/05/20 05:59:22;;;;;;;4.78;1.80;;;;;;;;;;5075835;28;20538;-76
2023/05/20 06:01:48;;;;;;;1.75;1.65;;;;;;;;;;5081620;28;20052;-76
2023/05/20 06:04:14;;;;;;;4.07;2.40;;;;;;;;;;5073221;28;20058;-78
2023/05/20 06:06:40;;;;;;;1.70;1.60;;;;;;;;;;5073262;28;20040;-76
2023/05/20 06:09:06;;;;;;;3.67;2.10;;;;;;;;;;5073028;28;20514;-75
2023/05/20 06:11:33;;;;;;;3.63;2.10;;;;;;;;;;5072911;28;20043;-74
2023/05/20 06:14:00;;;;;;;3.33;1.60;;;;;;;;;;5085895;28;20580;-75
2023/05/20 06:16:26;;;;;;;4.72;1.88;;;;;;;;;;5073186;28;20051;-74
2023/05/20 06:18:55;;;;;;;4.13;1.90;;;;;;;;;;5091077;28;20039;-74
2023/05/20 06:21:22;;;;;;;4.32;2.03;;;;;;;;;;5083541;28;20039;-77
2023/05/20 06:23:49;;;;;;;4.57;1.50;;;;;;;;;;5098372;28;20064;-81
2023/05/20 06:26:15;;;;;;;1.77;1.67;;;;;;;;;;5087314;28;20043;-78
2023/05/20 06:28:41;;;;;;;2.67;1.73;;;;;;;;;;5081503;28;20044;-79
2023/05/20 06:31:07;;;;;;;2.30;2.10;;;;;;;;;;5062833;28;20450;-80
2023/05/20 06:33:35;;;;;;;1.73;1.63;;;;;;;;;;5098535;28;20130;-78
2023/05/20 06:36:12;;;;;;;3.08;1.73;;;;;;;;;;5075848;28;20135;-78
2023/05/20 06:38:38;;;;;;;1.80;1.70;;;;;;;;;;5082393;28;20035;-81
2023/05/20 06:41:05;;;;;;;3.53;1.98;;;;;;;;;;5073419;28;20058;-77
2023/05/20 06:43:31;;;;;;;2.50;1.80;;;;;;;;;;5084733;28;20036;-77
2023/05/20 06:46:08;;;;;;;1.85;1.75;;;;;;;;;;5104169;28;20079;-77
2023/05/20 06:48:37;;;;;;;7.97;1.88;;;;;;;;;;5058812;28;20072;-78
2023/05/20 06:51:08;;;;;;;5.55;2.60;;;;;;;;;;5078797;28;20466;-80
2023/05/20 06:53:34;;;;;;;8.02;2.05;;;;;;;;;;5062686;28;20404;-78
2023/05/20 06:56:01;;;;;;;6.00;1.95;;;;;;;;;;5076830;28;20067;-78
2023/05/20 06:58:27;;;;;;;5.35;1.90;;;;;;;;;;5084352;28;20166;-79
2023/05/20 07:00:55;;;;;;;5.53;2.00;;;;;;;;;;5073502;28;20067;-80
2023/05/20 07:03:22;;;;;;;2.00;1.67;;;;;;;;;;5075504;28;20105;-80
2023/05/20 07:05:49;;;;;;;4.35;1.58;;;;;;;;;;5079172;28;20031;-80
2023/05/20 07:08:16;;;;;;;2.47;1.40;;;;;;;;;;5105376;28;20588;-79
2023/05/20 07:10:42;;;;;;;1.45;1.42;;;;;;;;;;5076669;28;20036;-79
2023/05/20 07:13:08;;;;;;;5.03;1.80;;;;;;;;;;5070785;28;20062;-81
2023/05/20 07:15:35;;;;;;;4.28;2.30;;;;;;;;;;5077438;28;20027;-79
2023/05/20 07:18:01;;;;;;;4.18;1.60;;;;;;;;;;5093657;28;20054;-79
2023/05/20 07:20:27;;;;;;;2.72;2.63;;;;;;;;;;5076923;28;20044;-80
2023/05/20 07:22:53;;;;;;;2.58;1.70;;;;;;;;;;5075064;28;20047;-79
2023/05/20 07:25:22;;;;;;;2.47;2.28;;;;;;;;;;5093541;28;20032;-79
2023/05/20 07:27:49;;;;;;;3.72;2.10;;;;;;;;;;5094323;28;20144;-84
2023/05/20 07:30:15;;;;;;;2.03;1.48;;;;;;;;;;5082135;28;20051;-78
2023/05/20 07:32:48;;;;;;;4.10;2.35;;;;;;;;;;5070306;28;20077;-79
2023/05/20 07:35:14;;;;;;;31.52;5.78;;;;;;;;;;5072239;28;20035;-78
2023/05/20 07:37:41;;;;;;;3.15;1.92;;;;;;;;;;5072007;28;20055;-77
2023/05/20 07:40:07;;;;;;;2.70;1.80;;;;;;;;;;5072146;28;20036;-76
2023/05/20 07:42:33;;;;;;;6.68;2.20;;;;;;;;;;5089713;28;20101;-76
2023/05/20 07:45:00;;;;;;;5.05;2.50;;;;;;;;;;5060707;28;20035;-78
2023/05/20 07:47:29;;;;;;;2.10;1.70;;;;;;;;;;5088102;28;20027;-84
2023/05/20 07:49:55;;;;;;;2.22;1.88;;;;;;;;;;5063727;28;20036;-84
2023/05/20 07:52:22;;;;;;;7.97;2.17;;;;;;;;;;5090492;28;20047;-84
2023/05/20 07:54:48;;;;;;;8.25;2.05;;;;;;;;;;5100407;28;20015;-84
2023/05/20 07:57:14;;;;;;;14.65;3.60;;;;;;;;;;5099110;28;20048;-84
2023/05/20 07:59:41;;;;;;;2.88;2.00;;;;;;;;;;5125441;28;20031;-84
2023/05/20 08:02:07;;;;;;;1.50;1.40;;;;;;;;;;5095073;28;20468;-83
2023/05/20 08:04:33;;;;;;;2.08;1.95;;;;;;;;;;5103513;28;20019;-83
2023/05/20 08:07:00;;;;;;;6.28;2.08;;;;;;;;;;5088170;28;20035;-84
2023/05/20 08:09:39;;;;;;;1.88;1.65;;;;;;;;;;5107378;28;20020;-82
2023/05/20 08:12:05;;;;;;;3.65;1.77;;;;;;;;;;5116997;28;20077;-81
2023/05/20 08:14:31;;;;;;;3.95;1.70;;;;;;;;;;5124957;28;20048;-82
2023/05/20 08:16:57;;;;;;;3.28;1.80;;;;;;;;;;5098652;28;20039;-83
2023/05/20 08:19:23;;;;;;;3.30;1.33;;;;;;;;;;5080007;28;20067;-84
2023/05/20 08:21:49;;;;;;;7.95;2.17;;;;;;;;;;5107819;28;20138;-84
2023/05/20 08:24:16;;;;;;;6.57;3.42;;;;;;;;;;5097398;28;20044;-83
2023/05/20 08:26:43;;;;;;;4.50;1.70;;;;;;;;;;5080256;28;20122;-84
2023/05/20 08:29:09;;;;;;;6.50;2.92;;;;;;;;;;5096048;28;20043;-86
2023/05/20 08:31:35;;;;;;;4.85;2.55;;;;;;;;;;5095967;28;20036;-84
2023/05/20 08:34:01;;;;;;;4.30;2.05;;;;;;;;;;5086001;28;20542;-83
2023/05/20 08:36:27;;;;;;;2.70;1.85;;;;;;;;;;5102360;28;20036;-83
2023/05/20 08:38:54;;;;;;;2.22;2.00;;;;;;;;;;5107567;28;20539;-83
2023/05/20 08:41:21;;;;;;;1.60;1.55;;;;;;;;;;5100074;28;20051;-82
2023/05/20 08:43:47;;;;;;;2.03;1.80;;;;;;;;;;5121776;28;20047;-83
2023/05/20 08:46:14;;;;;;;6.90;2.78;;;;;;;;;;5109548;28;20314;-81
2023/05/20 08:48:40;;;;;;;5.00;2.55;;;;;;;;;;5106370;28;20063;-83
2023/05/20 08:51:07;;;;;;;3.08;1.70;;;;;;;;;;5104737;28;20335;-82
2023/05/20 08:53:33;;;;;;;6.07;2.30;;;;;;;;;;5120747;27;20023;-83
2023/05/20 08:56:01;;;;;;;3.88;1.90;;;;;;;;;;5109353;28;20059;-84
2023/05/20 08:58:29;;;;;;;2.20;2.00;;;;;;;;;;5140759;28;20154;-83
2023/05/20 09:00:55;;;;;;;2.10;1.95;;;;;;;;;;5137155;28;20042;-82
2023/05/20 09:03:22;;;;;;;4.00;1.77;;;;;;;;;;5120592;28;20095;-83
2023/05/20 09:05:48;;;;;;;8.68;2.13;;;;;;;;;;5124998;28;20024;-84
2023/05/20 09:08:14;;;;;;;2.13;1.60;;;;;;;;;;5120266;28;20051;-82
2023/05/20 09:10:40;;;;;;;4.93;1.90;;;;;;;;;;5104198;28;20084;-84
2023/05/20 09:13:07;;;;;;;4.65;1.60;;;;;;;;;;5118031;28;20047;-79
2023/05/20 09:15:33;;;;;;;3.40;2.47;;;;;;;;;;5107425;28;20078;-79
2023/05/20 09:18:00;;;;;;;1.90;1.80;;;;;;;;;;5086694;28;20117;-80
2023/05/20 09:20:28;;;;;;;2.72;1.50;;;;;;;;;;5101880;28;20032;-80
2023/05/20 09:22:57;;;;;;;5.97;1.75;;;;;;;;;;5103337;28;20109;-79
2023/05/20 09:25:23;;;;;;;1.75;1.65;;;;;;;;;;5100236;28;20452;-80
2023/05/20 09:27:49;;;;;;;4.05;1.80;;;;;;;;;;5092026;28;20610;-81
2023/05/20 09:30:19;;;;;;;3.75;1.65;;;;;;;;;;5097707;28;20074;-80
2023/05/20 09:32:45;;;;;;;3.00;2.03;;;;;;;;;;5061063;28;20040;-80
2023/05/20 09:35:15;;;;;;;10.48;2.53;;;;;;;;;;5097250;28;20035;-81
2023/05/20 09:37:44;;;;;;;2.30;2.10;;;;;;;;;;5087388;28;20044;-82
2023/05/20 09:40:11;;;;;;;4.88;1.98;;;;;;;;;;5105355;28;20048;-81
2023/05/20 09:42:39;;;;;;;1.85;1.70;;;;;;;;;;5114771;28;20077;-81
2023/05/20 09:45:05;;;;;;;5.85;1.95;;;;;;;;;;5087774;28;20047;-81
2023/05/20 09:47:31;;;;;;;2.45;1.73;;;;;;;;;;5118913;28;20039;-80
2023/05/20 09:49:57;;;;;;;4.00;2.40;;;;;;;;;;5097918;28;20036;-82
2023/05/20 09:52:24;;;;;;;1.98;1.88;;;;;;;;;;5108510;28;20040;-82
2023/05/20 09:54:49;;;;;;;4.07;2.80;;;;;;;;;;5082452;28;20111;-81
2023/05/20 09:57:16;;;;;;;9.02;2.20;;;;;;;;;;5086045;28;20047;-82
2023/05/20 09:59:42;;;;;;;6.65;2.00;;;;;;;;;;5095547;28;20028;-81
2023/05/20 10:02:08;;;;;;;7.93;2.35;;;;;;;;;;5123550;28;20048;-81
2023/05/20 10:04:35;;;;;;;4.63;2.40;;;;;;;;;;5086440;28;20040;-81
2023/05/20 10:07:20;;;;;;;4.15;2.58;;;;;;;;;;5083739;28;20050;-81
2023/05/20 10:09:46;;;;;;;2.03;1.92;;;;;;;;;;5068245;28;20125;-81
2023/05/20 10:12:28;;;;;;;7.70;2.40;;;;;;;;;;5097893;28;20040;-82
2023/05/20 10:14:57;;;;;;;5.70;2.00;;;;;;;;;;5102351;28;20048;-81
2023/05/20 10:17:42;;;;;;;2.92;2.00;;;;;;;;;;5108141;28;20036;-82
2023/05/20 10:20:10;;;;;;;3.50;3.05;;;;;;;;;;5112529;28;20048;-81
2023/05/20 10:22:37;;;;;;;10.25;5.63;;;;;;;;;;5109458;28;20051;-81
2023/05/20 10:25:09;;;;;;;8.52;2.40;;;;;;;;;;5092585;28;20046;-81
2023/05/20 10:27:41;;;;;;;10.18;2.30;;;;;;;;;;5100007;28;20120;-80
2023/05/20 10:30:14;;;;;;;3.47;2.15;;;;;;;;;;5108774;28;20523;-81
2023/05/20 10:32:47;;;;;;;2.00;1.90;;;;;;;;;;5116199;28;20411;-82
2023/05/20 10:35:19;;;;;;;4.60;1.90;;;;;;;;;;5104106;28;20207;-81
2023/05/20 10:37:46;;;;;;;2.80;2.15;;;;;;;;;;5097348;28;20117;-82
2023/05/20 10:40:13;;;;;;;14.50;6.65;;;;;;;;;;5092974;28;20054;-81
2023/05/20 10:42:39;;;;;;;4.45;2.03;;;;;;;;;;5089738;28;20523;-81
2023/05/20 10:45:06;;;;;;;2.50;1.95;;;;;;;;;;5113928;28;20035;-81
2023/05/20 10:47:32;;;;;;;4.03;1.88;;;;;;;;;;5081935;28;20135;-80
2023/05/20 10:49:58;;;;;;;2.78;2.20;;;;;;;;;;5093379;28;20040;-80
2023/05/20 10:52:24;;;;;;;4.25;2.45;;;;;;;;;;5076209;28;20044;-82
2023/05/20 10:54:53;;;;;;;4.38;2.25;;;;;;;;;;5108126;28;20040;-82
2023/05/20 10:57:19;;;;;;;6.57;2.03;;;;;;;;;;5074947;28;20051;-81
2023/05/20 10:59:46;;;;;;;1.98;1.88;;;;;;;;;;5092498;28;20451;-81
2023/05/20 11:02:14;;;;;;;2.85;2.22;;;;;;;;;;5073912;28;20059;-82
2023/05/20 11:04:41;;;;;;;2.40;1.90;;;;;;;;;;5092985;28;20130;-81
2023/05/20 11:07:07;;;;;;;2.08;1.88;;;;;;;;;;5094827;28;20043;-81
2023/05/20 11:09:33;;;;;;;1.88;1.75;;;;;;;;;;5075054;28;20043;-80
2023/05/20 11:11:59;;;;;;;3.65;2.17;;;;;;;;;;5091816;28;20039;-83
2023/05/20 11:14:29;;;;;;;2.15;2.00;;;;;;;;;;5061919;28;20040;-82
2023/05/20 11:16:55;;;;;;;2.63;2.30;;;;;;;;;;5092686;28;20424;-81
2023/05/20 11:19:21;;;;;;;4.35;2.03;;;;;;;;;;5093864;28;20489;-82
2023/05/20 11:21:47;;;;;;;3.80;2.40;;;;;;;;;;5059269;28;20048;-82
2023/05/20 11:24:13;;;;;;;2.53;2.30;;;;;;;;;;5093709;28;20523;-81
2023/05/20 11:26:39;;;;;;;2.15;1.95;;;;;;;;;;5092142;28;20052;-81
2023/05/20 11:29:06;;;;;;;3.05;2.20;;;;;;;;;;5091122;28;20486;-82
2023/05/20 11:31:32;;;;;;;2.33;2.13;;;;;;;;;;5074195;28;20130;-81
2023/05/20 11:34:00;;;;;;;5.75;2.30;;;;;;;;;;5074549;28;20131;-82
2023/05/20 11:36:27;;;;;;;2.25;2.05;;;;;;;;;;5076456;28;20131;-81
2023/05/20 11:38:55;;;;;;;4.40;2.67;;;;;;;;;;5085161;28;20452;-82
2023/05/20 11:41:27;;;;;;;3.03;2.83;;;;;;;;;;5069559;28;20056;-81
2023/05/20 11:43:55;;;;;;;5.93;3.53;;;;;;;;;;5091516;28;20043;-80
2023/05/20 11:46:21;;;;;;;9.70;3.70;;;;;;;;;;5104530;28;20557;-81
2023/05/20 11:48:53;;;;;;;4.57;2.97;;;;;;;;;;5105474;28;20103;-79
2023/05/20 11:51:23;;;;;;;4.70;2.28;;;;;;;;;;5110039;28;20032;-81
2023/05/20 11:53:49;;;;;;;2.50;2.30;;;;;;;;;;5077876;28;20105;-82
2023/05/20 11:56:16;;;;;;;2.50;2.38;;;;;;;;;;5074436;28;20047;-81
2023/05/20 11:58:42;;;;;;;3.00;2.63;;;;;;;;;;5074786;28;20044;-80
2023/05/20 12:01:08;;;;;;;3.60;2.25;;;;;;;;;;5105846;28;20424;-82
2023/05/20 12:03:35;;;;;;;2.67;2.10;;;;;;;;;;5076152;28;20080;-83
2023/05/20 12:06:01;;;;;;;2.63;2.42;;;;;;;;;;5080062;28;20060;-82
2023/05/20 12:08:28;;;;;;;4.18;2.75;;;;;;;;;;5111164;28;20040;-81
2023/05/20 12:10:54;;;;;;;5.95;2.30;;;;;;;;;;5099829;28;20039;-81
2023/05/20 12:13:22;;;;;;;2.30;2.10;;;;;;;;;;5072214;28;20050;-82
2023/05/20 12:15:47;;;;;;;2.58;2.30;;;;;;;;;;5084340;28;20035;-81
2023/05/20 12:18:13;;;;;;;2.38;2.28;;;;;;;;;;5088213;28;20104;-81
2023/05/20 12:20:41;;;;;;;4.00;2.42;;;;;;;;;;5079817;28;20119;-82
2023/05/20 12:23:07;;;;;;;3.63;2.10;;;;;;;;;;5098834;28;20111;-83
2023/05/20 12:25:33;;;;;;;2.20;2.00;;;;;;;;;;5099142;28;20078;-82
2023/05/20 12:28:00;;;;;;;2.28;2.17;;;;;;;;;;5099221;28;20051;-82
2023/05/20 12:30:26;;;;;;;5.40;2.30;;;;;;;;;;5098619;28;20047;-82
2023/05/20 12:32:52;;;;;;;2.50;2.00;;;;;;;;;;5084468;28;20506;-80
2023/05/20 12:35:35;;;;;;;2.22;2.03;;;;;;;;;;5099133;28;20032;-82
2023/05/20 12:38:01;;;;;;;2.55;2.17;;;;;;;;;;5086645;28;20059;-83
2023/05/20 12:40:27;;;;;;;2.58;2.08;;;;;;;;;;5098918;28;20070;-82
2023/05/20 12:42:53;;;;;;;2.75;2.35;;;;;;;;;;5082522;28;20060;-79
2023/05/20 12:45:19;;;;;;;3.45;2.38;;;;;;;;;;5080504;28;20450;-73
2023/05/20 12:47:45;;;;;;;6.38;2.97;;;;;;;;;;5083748;28;20142;-75
2023/05/20 12:50:11;;;;;;;2.50;2.30;;;;;;;;;;5077806;28;20612;-74
2023/05/20 12:52:37;;;;;;;3.10;2.63;;;;;;;;;;5096392;28;20040;-75
2023/05/20 12:55:05;;;;;;;2.15;2.05;;;;;;;;;;5103140;28;20040;-74
2023/05/20 12:57:31;;;;;;;4.13;2.85;;;;;;;;;;5104083;28;20070;-74
2023/05/20 12:59:58;;;;;;;2.70;2.50;;;;;;;;;;5097499;28;20028;-74
2023/05/20 13:02:24;;;;;;;3.53;2.75;;;;;;;;;;5095506;28;20067;-75
2023/05/20 13:04:50;;;;;;;4.35;3.00;;;;;;;;;;5077752;28;20040;-75
2023/05/20 13:07:16;;;;;;;7.03;2.50;;;;;;;;;;5056786;28;20043;-75
2023/05/20 13:09:43;;;;;;;2.22;2.03;;;;;;;;;;5070507;28;20096;-74
2023/05/20 13:12:09;;;;;;;6.20;3.40;;;;;;;;;;5081956;28;20040;-74
2023/05/20 13:14:35;;;;;;;4.90;2.17;;;;;;;;;;5095307;28;20043;-74
2023/05/20 13:17:01;;;;;;;2.50;2.30;;;;;;;;;;5092060;28;20419;-74
2023/05/20 13:19:27;;;;;;;3.08;2.55;;;;;;;;;;5063157;28;20036;-74
2023/05/20 13:21:53;;;;;;;2.45;2.35;;;;;;;;;;5057758;28;20052;-74
2023/05/20 13:24:19;;;;;;;2.45;2.30;;;;;;;;;;5092479;28;20130;-74
2023/05/20 13:26:45;;;;;;;2.55;2.33;;;;;;;;;;5094718;28;20128;-75
2023/05/20 13:29:12;;;;;;;3.42;2.50;;;;;;;;;;5103557;28;20368;-75
2023/05/20 13:31:38;;;;;;;11.48;3.33;;;;;;;;;;5074841;28;20036;-75
2023/05/20 13:34:05;;;;;;;4.95;3.92;;;;;;;;;;5091853;28;20074;-74
2023/05/20 13:36:31;;;;;;;10.13;4.22;;;;;;;;;;5092560;28;20047;-74
2023/05/20 13:38:57;;;;;;;2.80;2.58;;;;;;;;;;5074629;28;20416;-73
2023/05/20 13:41:24;;;;;;;3.20;2.40;;;;;;;;;;5094961;28;20518;-74
2023/05/20 13:43:50;;;;;;;3.47;2.33;;;;;;;;;;5092328;28;20491;-74
2023/05/20 13:46:16;;;;;;;3.95;2.60;;;;;;;;;;5091891;28;20044;-74
2023/05/20 13:48:42;;;;;;;4.45;2.45;;;;;;;;;;5073836;28;20059;-74
2023/05/20 13:51:08;;;;;;;3.65;2.60;;;;;;;;;;5087390;28;20425;-74
2023/05/20 13:53:34;;;;;;;4.57;2.38;;;;;;;;;;5074008;28;20131;-74
2023/05/20 13:56:00;;;;;;;4.90;2.60;;;;;;;;;;5073758;28;20048;-74
2023/05/20 13:58:26;;;;;;;2.90;2.70;;;;;;;;;;5073721;28;20549;-74
2023/05/20 14:00:53;;;;;;;3.55;2.45;;;;;;;;;;5073886;28;20069;-74
2023/05/20 14:03:22;;;;;;;2.92;2.67;;;;;;;;;;5091572;28;20047;-74
2023/05/20 14:05:48;;;;;;;6.05;2.40;;;;;;;;;;5091838;28;20530;-74
2023/05/20 14:08:14;;;;;;;5.40;2.55;;;;;;;;;;5091214;28;20056;-74
2023/05/20 14:10:40;;;;;;;3.65;2.88;;;;;;;;;;5073948;28;20122;-74
2023/05/20 14:13:07;;;;;;;2.50;2.30;;;;;;;;;;5091775;28;20040;-74
2023/05/20 14:15:33;;;;;;;7.40;2.38;;;;;;;;;;5091628;28;20055;-74
2023/05/20 14:17:59;;;;;;;3.20;2.90;;;;;;;;;;5073808;28;20039;-74
2023/05/20 14:20:25;;;;;;;3.00;2.80;;;;;;;;;;5074156;28;20593;-74
2023/05/20 14:22:51;;;;;;;2.40;2.20;;;;;;;;;;5076961;28;20147;-74
2023/05/20 14:25:17;;;;;;;2.60;2.40;;;;;;;;;;5107126;28;20044;-74
2023/05/20 14:27:42;;;;;;;5.43;3.10;;;;;;;;;;5090210;28;20364;-74
2023/05/20 14:30:08;;;;;;;3.92;3.00;;;;;;;;;;5090937;28;20051;-74
2023/05/20 14:32:34;;;;;;;4.13;2.40;;;;;;;;;;5073093;28;20059;-74
2023/05/20 14:35:00;;;;;;;7.28;3.20;;;;;;;;;;5091200;28;20067;-74
2023/05/20 14:37:27;;;;;;;6.63;2.95;;;;;;;;;;5091085;28;20071;-74
2023/05/20 14:39:53;;;;;;;5.45;2.70;;;;;;;;;;5091084;28;20043;-74
2023/05/20 14:42:19;;;;;;;7.38;3.28;;;;;;;;;;5090761;28;20083;-75